Time;durP1;ratioP1;P1;durP2;ratioP2;P2;SDS_P1;SDS_P2;PMS_P1;PMS_P2;Temp;Humidity;BMP_temperature;BMP_pressure;BME280_temperature;BME280_humidity;BME280_pressure;Samples;Min_cycle;Max_cycle;Signal;HPM_P1;HPM_P2
2021/01/12 00:00:11;;;;;;;194.38;98.45;;;51.20;2227.20;;;;;;4838819;29;20098;-76
2021/01/12 00:02:37;;;;;;;171.65;88.55;;;26.50;2201.60;;;;;;4839447;29;20769;-77
2021/01/12 00:05:04;;;;;;;162.18;85.35;;;26.50;2201.60;;;;;;4838883;29;20057;-76
2021/01/12 00:07:30;;;;;;;163.85;78.78;;;26.50;2201.60;;;;;;4839075;29;20537;-77
2021/01/12 00:09:56;;;;;;;129.15;71.45;;;51.20;2227.20;;;;;;4839000;29;20406;-78
2021/01/12 00:12:22;;;;;;;135.02;70.53;;;51.30;2227.20;;;;;;4842047;29;20030;-77
2021/01/12 00:14:48;;;;;;;141.20;70.05;;;51.20;2227.20;;;;;;4843818;29;20172;-77
2021/01/12 00:17:14;;;;;;;135.00;75.95;;;51.20;2227.20;;;;;;4843624;29;20037;-77
2021/01/12 00:19:41;;;;;;;139.27;73.30;;;51.30;2227.20;;;;;;4842264;29;20045;-77
2021/01/12 00:22:14;;;;;;;148.20;81.97;;;51.20;2227.20;;;;;;4842415;29;20022;-78
2021/01/12 00:24:41;;;;;;;151.95;80.20;;;51.20;2227.20;;;;;;4824433;29;20036;-77
2021/01/12 00:27:07;;;;;;;140.52;72.53;;;51.30;2227.20;;;;;;4827484;29;20037;-77
2021/01/12 00:29:33;;;;;;;129.30;66.85;;;51.20;2227.20;;;;;;4842598;29;20406;-78
2021/01/12 00:31:59;;;;;;;124.05;63.97;;;51.20;2227.20;;;;;;4841847;29;20426;-77
2021/01/12 00:34:24;;;;;;;129.27;65.90;;;51.20;2227.20;;;;;;4841247;29;20037;-77
2021/01/12 00:36:51;;;;;;;134.60;70.20;;;51.20;2227.20;;;;;;4843219;29;20127;-76
2021/01/12 00:39:21;;;;;;;140.27;71.72;;;26.50;2201.60;;;;;;4842207;29;20132;-77
2021/01/12 00:41:57;;;;;;;144.05;76.72;;;51.20;2227.20;;;;;;4842164;29;20035;-76
2021/01/12 00:44:24;;;;;;;140.07;77.30;;;51.20;2227.20;;;;;;4841952;29;20037;-77
2021/01/12 00:46:51;;;;;;;141.10;79.13;;;51.30;2227.20;;;;;;4842072;29;20041;-77
2021/01/12 00:49:21;;;;;;;147.98;74.10;;;51.30;2227.20;;;;;;4842001;29;20026;-77
2021/01/12 00:51:47;;;;;;;136.20;70.25;;;51.30;2227.20;;;;;;4843261;29;20030;-77
2021/01/12 00:54:17;;;;;;;126.63;66.43;;;51.20;2227.20;;;;;;4842328;29;20029;-77
2021/01/12 00:56:43;;;;;;;138.75;67.65;;;51.20;2227.20;;;;;;4841915;29;20029;-77
2021/01/12 00:59:09;;;;;;;134.90;67.28;;;51.20;2227.20;;;;;;4843566;29;20037;-77
2021/01/12 01:01:37;;;;;;;144.90;74.80;;;26.50;2201.60;;;;;;4842045;29;20045;-77
2021/01/12 01:04:05;;;;;;;133.57;70.47;;;26.50;2201.60;;;;;;4842357;29;20057;-77
2021/01/12 01:06:31;;;;;;;126.53;65.10;;;51.20;2227.20;;;;;;4843601;29;20041;-77
2021/01/12 01:08:57;;;;;;;131.73;69.53;;;51.20;2227.20;;;;;;4842572;29;20026;-77
2021/01/12 01:11:23;;;;;;;129.55;71.18;;;51.20;2227.20;;;;;;4843497;29;20030;-77
2021/01/12 01:13:49;;;;;;;132.63;65.80;;;51.20;2227.20;;;;;;4841717;29;20636;-78
2021/01/12 01:16:15;;;;;;;125.43;65.43;;;51.20;2227.20;;;;;;4844182;29;20034;-77
2021/01/12 01:18:41;;;;;;;145.85;67.85;;;51.30;2227.20;;;;;;4842098;29;20046;-77
2021/01/12 01:21:13;;;;;;;138.35;70.10;;;51.30;2227.20;;;;;;4842784;29;20424;-77
2021/01/12 01:23:40;;;;;;;136.80;68.88;;;51.20;2227.20;;;;;;4841951;29;20046;-77
2021/01/12 01:26:05;;;;;;;161.48;72.53;;;26.40;2201.60;;;;;;4842561;29;20034;-77
2021/01/12 01:28:32;;;;;;;149.73;67.90;;;26.30;2201.60;;;;;;4843273;29;20397;-77
2021/01/12 01:30:57;;;;;;;139.02;68.43;;;26.30;2201.60;;;;;;4843985;29;20558;-77
2021/01/12 01:33:23;;;;;;;146.77;71.78;;;26.40;2201.60;;;;;;4842187;29;20138;-77
2021/01/12 01:35:49;;;;;;;157.30;75.05;;;26.40;2201.60;;;;;;4842149;29;20495;-77
2021/01/12 01:38:15;;;;;;;164.48;78.50;;;26.30;2201.60;;;;;;4844239;29;20030;-77
2021/01/12 01:40:40;;;;;;;172.63;84.28;;;26.20;2201.60;;;;;;4830911;29;20109;-77
2021/01/12 01:43:06;;;;;;;141.90;71.97;;;26.10;2201.60;;;;;;4824523;29;20455;-77
2021/01/12 01:45:32;;;;;;;148.27;68.30;;;26.20;2201.60;;;;;;4824761;29;20030;-76
2021/01/12 01:48:02;;;;;;;146.13;75.63;;;26.20;2201.60;;;;;;4825235;29;20801;-77
2021/01/12 01:50:28;;;;;;;145.77;69.90;;;26.20;2201.60;;;;;;4825986;29;20030;-77
2021/01/12 01:52:55;;;;;;;155.43;73.60;;;26.30;2201.60;;;;;;4824529;29;20051;-77
2021/01/12 01:55:22;;;;;;;146.05;70.78;;;26.30;2201.60;;;;;;4823094;29;20061;-77
2021/01/12 01:57:48;;;;;;;134.52;68.35;;;26.40;2201.60;;;;;;4822056;29;20035;-76
2021/01/12 02:00:18;;;;;;;125.93;66.70;;;26.50;2201.60;;;;;;4824298;29;20034;-76
2021/01/12 02:03:07;;;;;;;146.70;70.82;;;26.50;2201.60;;;;;;4823733;29;20049;-76
2021/01/12 02:05:38;;;;;;;135.48;67.45;;;26.50;2201.60;;;;;;4822992;29;20095;-77
2021/01/12 02:08:15;;;;;;;146.85;69.85;;;26.30;2201.60;;;;;;4822239;29;20394;-76
2021/01/12 02:10:46;;;;;;;128.95;65.03;;;26.40;2201.60;;;;;;4822293;29;20490;-76
2021/01/12 02:13:15;;;;;;;138.05;68.63;;;26.40;2201.60;;;;;;4822776;29;20042;-75
2021/01/12 02:15:43;;;;;;;146.02;72.45;;;26.40;2201.60;;;;;;4823187;29;20065;-75
2021/01/12 02:18:11;;;;;;;151.90;71.22;;;26.30;2201.60;;;;;;4822612;29;20046;-75
2021/01/12 02:20:37;;;;;;;154.55;77.00;;;26.40;2201.60;;;;;;4822078;29;20031;-75
2021/01/12 02:23:43;;;;;;;149.90;65.43;;;26.40;2201.60;;;;;;4821191;29;20030;-76
2021/01/12 02:26:09;;;;;;;140.07;68.53;;;26.40;2201.60;;;;;;4813413;29;20149;-75
2021/01/12 02:28:35;;;;;;;152.45;66.60;;;26.40;2201.60;;;;;;4822016;29;20129;-75
2021/01/12 02:31:00;;;;;;;133.48;70.03;;;26.30;2201.60;;;;;;4821928;29;20030;-75
2021/01/12 02:33:26;;;;;;;144.40;68.90;;;26.30;2201.60;;;;;;4823206;29;20034;-76
2021/01/12 02:35:54;;;;;;;168.18;73.32;;;26.20;2201.60;;;;;;4822987;29;20034;-75
2021/01/12 02:38:21;;;;;;;163.13;76.07;;;26.20;2201.60;;;;;;4822395;29;20138;-76
2021/01/12 02:40:47;;;;;;;187.45;80.10;;;26.20;2201.60;;;;;;4821918;29;20120;-75
2021/01/12 02:43:14;;;;;;;195.48;80.07;;;26.20;2201.60;;;;;;4822277;29;20053;-75
2021/01/12 02:45:39;;;;;;;201.55;86.68;;;26.20;2201.60;;;;;;4821542;29;20030;-75
2021/01/12 02:48:06;;;;;;;179.68;75.70;;;26.00;2201.60;;;;;;4822230;29;20115;-75
2021/01/12 02:50:31;;;;;;;178.73;78.85;;;26.10;2201.60;;;;;;4822876;29;20069;-75
2021/01/12 02:52:57;;;;;;;151.35;72.13;;;26.20;2201.60;;;;;;4821641;29;20118;-75
2021/01/12 02:55:23;;;;;;;140.63;66.43;;;26.20;2201.60;;;;;;4822152;29;20031;-75
2021/01/12 02:57:48;;;;;;;154.23;70.53;;;26.30;2201.60;;;;;;4821791;29;20368;-75
2021/01/12 03:00:16;;;;;;;145.30;69.88;;;26.30;2201.60;;;;;;4823384;29;20030;-75
2021/01/12 03:02:42;;;;;;;141.55;70.72;;;26.30;2201.60;;;;;;4821620;29;20042;-75
2021/01/12 03:05:09;;;;;;;133.80;63.33;;;26.30;2201.60;;;;;;4821837;29;20047;-76
2021/01/12 03:07:35;;;;;;;133.15;63.08;;;26.30;2201.60;;;;;;4821500;29;20027;-75
2021/01/12 03:10:03;;;;;;;142.35;66.50;;;26.30;2201.60;;;;;;4823181;29;20090;-75
2021/01/12 03:12:28;;;;;;;141.00;65.47;;;26.40;2201.60;;;;;;4822317;29;20061;-75
2021/01/12 03:14:54;;;;;;;132.23;63.38;;;26.30;2201.60;;;;;;4821698;29;20062;-75
2021/01/12 03:17:20;;;;;;;146.75;66.22;;;26.40;2201.60;;;;;;4821144;29;20514;-75
2021/01/12 03:19:46;;;;;;;135.98;63.53;;;26.30;2201.60;;;;;;4822298;29;20034;-75
2021/01/12 03:22:13;;;;;;;134.35;67.85;;;26.30;2201.60;;;;;;4821799;29;20064;-75
2021/01/12 03:24:39;;;;;;;140.38;67.72;;;26.30;2201.60;;;;;;4821197;29;20026;-75
2021/01/12 03:27:06;;;;;;;133.18;66.47;;;26.40;2201.60;;;;;;4821748;29;20026;-75
2021/01/12 03:29:35;;;;;;;138.10;63.60;;;26.40;2201.60;;;;;;4822304;29;20035;-75
2021/01/12 03:32:01;;;;;;;124.97;63.88;;;26.30;2201.60;;;;;;4822848;29;20033;-75
2021/01/12 03:34:27;;;;;;;144.80;65.60;;;26.40;2201.60;;;;;;4821155;29;20036;-75
2021/01/12 03:36:53;;;;;;;125.07;65.47;;;26.30;2201.60;;;;;;4822916;29;20045;-75
2021/01/12 03:39:18;;;;;;;141.05;67.00;;;26.30;2201.60;;;;;;4821327;29;20042;-75
2021/01/12 03:41:44;;;;;;;149.70;67.38;;;26.40;2201.60;;;;;;4822749;29;20026;-76
2021/01/12 03:44:10;;;;;;;122.28;61.20;;;26.40;2201.60;;;;;;4823105;29;20050;-76
2021/01/12 03:46:35;;;;;;;125.07;60.70;;;26.30;2201.60;;;;;;4822696;29;20113;-75
2021/01/12 03:49:01;;;;;;;121.38;60.90;;;26.40;2201.60;;;;;;4825314;29;20034;-76
2021/01/12 03:51:27;;;;;;;134.15;62.65;;;26.50;2201.60;;;;;;4824775;29;20037;-75
2021/01/12 03:53:53;;;;;;;134.13;64.97;;;26.50;2201.60;;;;;;4826569;29;20030;-75
2021/01/12 03:56:19;;;;;;;135.68;63.78;;;26.50;2201.60;;;;;;4826084;29;20060;-76
2021/01/12 03:58:45;;;;;;;132.50;63.08;;;26.50;2201.60;;;;;;4826605;29;20034;-76
2021/01/12 04:01:12;;;;;;;128.63;61.38;;;26.50;2201.60;;;;;;4826012;29;20026;-76
2021/01/12 04:03:42;;;;;;;118.97;58.65;;;26.40;2201.60;;;;;;4826294;29;20042;-76
2021/01/12 04:06:16;;;;;;;119.57;58.08;;;26.40;2201.60;;;;;;4825592;29;20091;-75
2021/01/12 04:08:45;;;;;;;108.55;55.08;;;26.50;2201.60;;;;;;4824561;29;20039;-75
2021/01/12 04:11:17;;;;;;;122.28;59.65;;;26.40;2201.60;;;;;;4824787;29;20041;-75
2021/01/12 04:13:43;;;;;;;119.40;64.18;;;26.50;2201.60;;;;;;4824553;29;20523;-75
2021/01/12 04:16:09;;;;;;;128.15;63.47;;;51.20;2227.20;;;;;;4825947;29;20113;-76
2021/01/12 04:18:35;;;;;;;127.28;61.60;;;51.20;2227.20;;;;;;4823878;29;20027;-75
2021/01/12 04:21:01;;;;;;;119.25;59.50;;;51.20;2227.20;;;;;;4825897;29;20050;-75
2021/01/12 04:23:28;;;;;;;125.40;63.60;;;51.20;2227.20;;;;;;4824219;29;20474;-75
2021/01/12 04:25:54;;;;;;;139.82;69.63;;;51.20;2227.20;;;;;;4823980;29;20483;-75
2021/01/12 04:28:20;;;;;;;127.53;65.18;;;51.20;2227.20;;;;;;4826175;29;20083;-75
2021/01/12 04:30:46;;;;;;;127.32;64.95;;;51.20;2227.20;;;;;;4824047;29;20394;-76
2021/01/12 04:33:11;;;;;;;140.50;68.38;;;51.20;2227.20;;;;;;4824573;29;20071;-76
2021/01/12 04:35:37;;;;;;;153.43;68.75;;;26.50;2201.60;;;;;;4825326;29;20114;-76
2021/01/12 04:38:03;;;;;;;149.23;71.05;;;26.30;2201.60;;;;;;4824627;29;20023;-76
2021/01/12 04:40:29;;;;;;;152.05;70.80;;;26.30;2201.60;;;;;;4823967;29;20050;-75
2021/01/12 04:42:58;;;;;;;139.82;69.32;;;26.30;2201.60;;;;;;4825709;29;20064;-76
2021/01/12 04:45:25;;;;;;;135.27;67.28;;;26.20;2201.60;;;;;;4824321;29;20083;-76
2021/01/12 04:47:51;;;;;;;154.70;70.78;;;26.30;2201.60;;;;;;4824688;29;20070;-76
2021/01/12 04:50:16;;;;;;;149.02;70.60;;;26.20;2201.60;;;;;;4823839;29;20073;-75
2021/01/12 04:52:50;;;;;;;138.75;68.28;;;26.20;2201.60;;;;;;4823847;29;20062;-76
2021/01/12 04:55:20;;;;;;;136.73;71.53;;;26.40;2201.60;;;;;;4825771;29;20117;-76
2021/01/12 04:57:47;;;;;;;139.55;69.55;;;26.50;2201.60;;;;;;4824442;29;20038;-76
2021/01/12 05:00:14;;;;;;;134.40;66.38;;;51.20;2227.20;;;;;;4825085;29;20064;-76
2021/01/12 05:02:40;;;;;;;134.27;65.82;;;51.20;2227.20;;;;;;4824872;29;20439;-76
2021/01/12 05:05:07;;;;;;;131.35;64.82;;;51.20;2227.20;;;;;;4823873;29;20566;-75
2021/01/12 05:07:37;;;;;;;139.80;66.75;;;51.20;2227.20;;;;;;4824701;29;20065;-75
2021/01/12 05:10:09;;;;;;;122.72;62.45;;;51.20;2227.20;;;;;;4824761;29;20514;-75
2021/01/12 05:12:37;;;;;;;130.75;63.45;;;26.50;2201.60;;;;;;4825207;29;20053;-75
2021/01/12 05:15:03;;;;;;;134.25;62.17;;;51.20;2227.20;;;;;;4823272;29;20035;-75
2021/01/12 05:17:32;;;;;;;136.07;64.47;;;26.50;2201.60;;;;;;4825396;29;20113;-76
2021/01/12 05:20:02;;;;;;;134.35;65.43;;;51.20;2227.20;;;;;;4825268;29;20539;-76
2021/01/12 05:22:30;;;;;;;139.38;66.38;;;51.20;2227.20;;;;;;4824027;29;20026;-76
2021/01/12 05:25:19;;;;;;;128.98;66.45;;;51.20;2227.20;;;;;;4824818;29;20574;-75
2021/01/12 05:27:42;;;;;;;120.13;62.35;;;51.20;2227.20;;;;;;4824443;29;20110;-75
2021/01/12 05:30:09;;;;;;;125.72;64.47;;;26.50;2201.60;;;;;;4825284;29;20046;-76
2021/01/12 05:32:38;;;;;;;137.93;67.57;;;26.50;2201.60;;;;;;4839623;29;20030;-76
2021/01/12 05:35:06;;;;;;;140.15;65.15;;;26.50;2201.60;;;;;;4843471;29;20537;-75
2021/01/12 05:37:33;;;;;;;150.70;70.40;;;51.20;2227.20;;;;;;4841231;29;20040;-75
2021/01/12 05:40:02;;;;;;;152.95;71.47;;;51.20;2227.20;;;;;;4841369;29;20038;-76
2021/01/12 05:42:30;;;;;;;139.60;69.07;;;51.20;2227.20;;;;;;4842345;29;20117;-76
2021/01/12 05:44:56;;;;;;;148.68;72.03;;;51.20;2227.20;;;;;;4843013;29;20026;-76
2021/01/12 05:47:23;;;;;;;144.82;71.03;;;51.20;2227.20;;;;;;4843400;29;20033;-76
2021/01/12 05:49:51;;;;;;;138.52;68.40;;;26.50;2201.60;;;;;;4843004;29;20065;-76
2021/01/12 05:52:19;;;;;;;126.03;60.88;;;26.50;2201.60;;;;;;4843426;29;20067;-75
2021/01/12 05:55:04;;;;;;;154.00;72.60;;;26.50;2201.60;;;;;;4842196;29;20034;-75
2021/01/12 05:57:30;;;;;;;148.20;74.95;;;26.50;2201.60;;;;;;4842344;29;20060;-75
2021/01/12 06:00:05;;;;;;;142.15;71.45;;;51.20;2227.20;;;;;;4841423;29;20128;-76
2021/01/12 06:02:32;;;;;;;149.65;74.20;;;26.50;2201.60;;;;;;4841264;29;20470;-75
2021/01/12 06:04:59;;;;;;;151.65;67.72;;;26.40;2201.60;;;;;;4841533;29;20570;-76
2021/01/12 06:07:26;;;;;;;137.38;67.18;;;26.50;2201.60;;;;;;4841099;29;20400;-75
2021/01/12 06:09:54;;;;;;;143.98;69.03;;;26.40;2201.60;;;;;;4841733;29;20048;-75
2021/01/12 06:12:24;;;;;;;141.93;73.88;;;26.50;2201.60;;;;;;4841713;29;20044;-75
2021/01/12 06:14:51;;;;;;;150.55;71.68;;;26.50;2201.60;;;;;;4841151;29;20557;-75
2021/01/12 06:17:17;;;;;;;145.27;68.03;;;26.40;2201.60;;;;;;4843053;29;20065;-76
2021/01/12 06:19:48;;;;;;;159.55;75.88;;;26.30;2201.60;;;;;;4840957;29;20520;-75
2021/01/12 06:22:17;;;;;;;149.30;67.30;;;26.30;2201.60;;;;;;4841811;29;20041;-76
2021/01/12 06:24:52;;;;;;;144.60;66.18;;;26.20;2201.60;;;;;;4841724;29;20430;-76
2021/01/12 06:27:25;;;;;;;146.35;67.60;;;26.30;2201.60;;;;;;4841704;29;20026;-76
2021/01/12 06:29:52;;;;;;;138.15;68.45;;;26.20;2201.60;;;;;;4843150;29;20475;-76
2021/01/12 06:32:22;;;;;;;133.40;64.32;;;26.30;2201.60;;;;;;4841478;29;20034;-76
2021/01/12 06:34:54;;;;;;;138.10;65.70;;;26.30;2201.60;;;;;;4841884;29;20490;-76
2021/01/12 06:37:21;;;;;;;137.10;68.80;;;26.20;2201.60;;;;;;4842096;29;20042;-76
2021/01/12 06:39:57;;;;;;;151.95;71.68;;;26.30;2201.60;;;;;;4842620;29;20037;-76
2021/01/12 06:42:25;;;;;;;147.05;71.88;;;26.30;2201.60;;;;;;4841978;29;20037;-77
2021/01/12 06:44:53;;;;;;;163.75;79.00;;;26.30;2201.60;;;;;;4843343;29;20030;-76
2021/01/12 06:47:26;;;;;;;186.07;79.28;;;26.20;2201.60;;;;;;4843786;29;20390;-76
2021/01/12 06:50:12;;;;;;;163.70;74.22;;;26.20;2201.60;;;;;;4844643;29;20075;-76
2021/01/12 06:52:43;;;;;;;167.45;71.10;;;26.10;2201.60;;;;;;4839886;29;20034;-76
2021/01/12 06:55:10;;;;;;;139.18;66.90;;;26.10;2201.60;;;;;;4840406;29;20038;-76
2021/01/12 06:57:36;;;;;;;155.93;71.78;;;26.20;2201.60;;;;;;4840907;29;20490;-75
2021/01/12 07:00:08;;;;;;;137.88;67.18;;;26.30;2201.60;;;;;;4840137;29;20129;-75
2021/01/12 07:02:34;;;;;;;154.07;69.80;;;26.40;2201.60;;;;;;4840814;29;20029;-76
2021/01/12 07:05:07;;;;;;;145.70;64.88;;;26.50;2201.60;;;;;;4839296;29;20046;-76
2021/01/12 07:07:38;;;;;;;151.65;71.82;;;26.50;2201.60;;;;;;4841317;29;20026;-75
2021/01/12 07:10:07;;;;;;;148.98;68.40;;;26.40;2201.60;;;;;;4839618;29;20034;-76
2021/01/12 07:12:33;;;;;;;141.55;67.13;;;26.40;2201.60;;;;;;4839973;29;20033;-76
2021/01/12 07:15:16;;;;;;;125.45;59.38;;;26.40;2201.60;;;;;;4839637;29;20139;-75
2021/01/12 07:17:47;;;;;;;145.95;69.63;;;26.40;2201.60;;;;;;4839439;29;20490;-75
2021/01/12 07:20:40;;;;;;;137.57;69.72;;;26.50;2201.60;;;;;;4839696;29;20033;-76
2021/01/12 07:23:08;;;;;;;153.43;72.20;;;26.50;2201.60;;;;;;4835831;29;20030;-75
2021/01/12 07:25:39;;;;;;;163.90;73.60;;;26.50;2201.60;;;;;;4839301;29;20482;-75
2021/01/12 07:28:14;;;;;;;149.23;70.57;;;26.50;2201.60;;;;;;4839832;29;20033;-75
2021/01/12 07:30:42;;;;;;;145.07;73.47;;;26.50;2201.60;;;;;;4840610;29;20033;-76
2021/01/12 07:33:18;;;;;;;156.75;71.55;;;26.50;2201.60;;;;;;4839945;29;20033;-76
2021/01/12 07:35:47;;;;;;;162.93;73.10;;;26.40;2201.60;;;;;;4841002;29;20069;-75
2021/01/12 07:38:15;;;;;;;151.10;72.32;;;26.40;2201.60;;;;;;4839357;29;20037;-75
2021/01/12 07:40:40;;;;;;;147.00;68.90;;;26.50;2201.60;;;;;;4840038;29;20394;-75
2021/01/12 07:43:06;;;;;;;175.38;82.53;;;26.50;2201.60;;;;;;4840536;29;20030;-75
2021/01/12 07:45:34;;;;;;;208.07;102.07;;;26.30;2201.60;;;;;;4839785;29;20041;-76
2021/01/12 07:48:03;;;;;;;155.85;77.10;;;26.30;2201.60;;;;;;4840180;29;20026;-76
2021/01/12 07:50:30;;;;;;;144.77;73.22;;;26.30;2201.60;;;;;;4841595;29;20026;-75
2021/01/12 07:52:57;;;;;;;148.50;75.53;;;26.30;2201.60;;;;;;4838925;29;20046;-76
2021/01/12 07:55:23;;;;;;;154.50;81.15;;;26.40;2201.60;;;;;;4839148;29;20046;-75
2021/01/12 07:57:49;;;;;;;168.60;80.70;;;26.30;2201.60;;;;;;4833999;29;20475;-75
2021/01/12 08:00:17;;;;;;;168.77;80.65;;;26.40;2201.60;;;;;;4820713;29;20034;-76
2021/01/12 08:02:49;;;;;;;159.63;77.30;;;26.50;2201.60;;;;;;4821519;29;20034;-76
2021/01/12 08:05:18;;;;;;;140.68;69.05;;;26.50;2201.60;;;;;;4829781;29;20061;-75
2021/01/12 08:07:44;;;;;;;144.15;68.15;;;26.50;2201.60;;;;;;4839519;29;20549;-76
2021/01/12 08:10:10;;;;;;;141.48;68.95;;;26.40;2201.60;;;;;;4838834;29;20046;-76
2021/01/12 08:12:37;;;;;;;137.90;70.35;;;26.50;2201.60;;;;;;4841018;29;20038;-76
2021/01/12 08:15:11;;;;;;;143.13;72.50;;;26.40;2201.60;;;;;;4839565;29;20033;-76
2021/01/12 08:17:48;;;;;;;154.73;79.82;;;26.40;2201.60;;;;;;4838553;29;20054;-76
2021/01/12 08:20:18;;;;;;;150.57;75.50;;;26.50;2201.60;;;;;;4839573;29;20034;-76
2021/01/12 08:22:50;;;;;;;149.35;76.35;;;26.50;2201.60;;;;;;4838972;29;20030;-75
2021/01/12 08:25:16;;;;;;;151.85;80.28;;;26.40;2201.60;;;;;;4840130;29;20517;-74
2021/01/12 08:27:50;;;;;;;140.80;71.80;;;26.40;2201.60;;;;;;4840738;29;20022;-75
2021/01/12 08:30:24;;;;;;;117.65;62.40;;;26.40;2201.60;;;;;;4840123;29;21229;-75
2021/01/12 08:33:06;;;;;;;117.22;60.60;;;26.40;2201.60;;;;;;4842258;29;20030;-75
2021/01/12 08:35:37;;;;;;;120.13;58.63;;;26.40;2201.60;;;;;;4844004;29;20113;-75
2021/01/12 08:38:06;;;;;;;125.45;64.45;;;26.40;2201.60;;;;;;4843350;29;20041;-75
2021/01/12 08:40:33;;;;;;;121.95;58.63;;;51.20;2227.20;;;;;;4843767;29;20042;-74
2021/01/12 08:43:00;;;;;;;136.43;68.00;;;51.20;2227.20;;;;;;4841670;29;20422;-75
2021/01/12 08:45:31;;;;;;;138.32;76.28;;;51.20;2227.20;;;;;;4842703;29;20030;-75
2021/01/12 08:48:15;;;;;;;131.45;70.70;;;51.30;2227.20;;;;;;4843196;29;20390;-75
2021/01/12 08:50:41;;;;;;;142.30;70.13;;;51.20;2227.20;;;;;;4843025;29;20026;-75
2021/01/12 08:53:08;;;;;;;146.40;71.53;;;26.50;2201.60;;;;;;4842256;29;20022;-75
2021/01/12 08:55:34;;;;;;;125.07;66.57;;;51.20;2227.20;;;;;;4833068;29;20018;-75
2021/01/12 08:58:01;;;;;;;121.13;63.10;;;51.20;2227.20;;;;;;4842189;29;20112;-74
2021/01/12 09:00:29;;;;;;;124.15;67.40;;;26.50;2201.60;;;;;;4837876;29;20033;-75
2021/01/12 09:02:56;;;;;;;119.13;61.80;;;51.20;2227.20;;;;;;4827242;29;20050;-75
2021/01/12 09:05:22;;;;;;;119.72;60.15;;;51.30;2227.20;;;;;;4827834;29;20137;-75
2021/01/12 09:08:02;;;;;;;101.00;52.28;;;51.30;2227.20;;;;;;4837229;29;20118;-75
2021/01/12 09:10:28;;;;;;;99.50;51.25;;;51.40;2227.20;;;;;;4840811;29;20033;-75
2021/01/12 09:12:55;;;;;;;95.00;55.17;;;51.40;2227.20;;;;;;4840572;29;20030;-75
2021/01/12 09:15:32;;;;;;;109.90;63.45;;;51.30;2227.20;;;;;;4839241;29;20118;-75
2021/01/12 09:18:04;;;;;;;116.30;60.78;;;51.40;2227.20;;;;;;4840994;29;20038;-75
2021/01/12 09:20:30;;;;;;;113.18;62.55;;;51.50;2227.20;;;;;;4842682;29;20030;-75
2021/01/12 09:23:15;;;;;;;109.57;58.75;;;51.60;2227.20;;;;;;4842647;29;20386;-75
2021/01/12 09:25:49;;;;;;;120.35;66.68;;;51.60;2201.60;;;;;;4842133;29;20022;-74
2021/01/12 09:28:17;;;;;;;117.72;65.88;;;51.70;2227.20;;;;;;4830247;29;20064;-76
2021/01/12 09:30:44;;;;;;;133.00;72.35;;;51.70;2227.20;;;;;;4822288;29;20502;-76
2021/01/12 09:33:24;;;;;;;138.38;81.10;;;51.70;2227.20;;;;;;4821667;29;20042;-76
2021/01/12 09:36:01;;;;;;;141.45;77.03;;;51.60;2227.20;;;;;;4824581;29;20027;-75
2021/01/12 09:38:38;;;;;;;126.78;66.13;;;51.70;2201.60;;;;;;4822725;29;20163;-75
2021/01/12 09:41:05;;;;;;;124.60;62.92;;;51.70;2227.20;;;;;;4839646;29;20030;-75
2021/01/12 09:43:31;;;;;;;119.60;66.20;;;51.70;2227.20;;;;;;4843181;29;20029;-75
2021/01/12 09:45:58;;;;;;;124.00;61.47;;;51.70;2227.20;;;;;;4841404;29;20067;-76
2021/01/12 09:48:24;;;;;;;110.35;59.78;;;51.70;2201.60;;;;;;4843000;29;20022;-76
2021/01/12 09:50:50;;;;;;;128.98;69.53;;;51.50;2227.20;;;;;;4842454;29;20022;-74
2021/01/12 09:53:15;;;;;;;122.95;66.85;;;51.60;2227.20;;;;;;4841461;29;20554;-75
2021/01/12 09:55:41;;;;;;;126.60;65.53;;;51.60;2227.20;;;;;;4842038;29;20406;-75
2021/01/12 09:58:07;;;;;;;123.88;68.05;;;51.60;2227.20;;;;;;4841143;29;20037;-75
2021/01/12 10:00:33;;;;;;;138.80;67.80;;;51.60;2201.60;;;;;;4843051;29;20026;-77
2021/01/12 10:02:59;;;;;;;130.65;70.60;;;51.70;2227.20;;;;;;4840742;29;20524;-75
2021/01/12 10:05:24;;;;;;;127.03;70.13;;;51.60;2227.20;;;;;;4842402;29;20534;-75
2021/01/12 10:07:50;;;;;;;132.55;71.13;;;51.60;2227.20;;;;;;4836354;29;20026;-75
2021/01/12 10:10:16;;;;;;;135.02;67.82;;;51.50;2227.20;;;;;;4824255;29;20038;-75
2021/01/12 10:12:42;;;;;;;132.38;68.30;;;51.50;2227.20;;;;;;4822308;29;20042;-75
2021/01/12 10:15:07;;;;;;;131.80;69.93;;;51.50;2227.20;;;;;;4824419;29;20038;-75
2021/01/12 10:17:33;;;;;;;126.50;65.93;;;51.50;2227.20;;;;;;4840737;29;20086;-75
2021/01/12 10:19:59;;;;;;;139.48;70.00;;;51.60;2227.20;;;;;;4841388;29;20034;-75
2021/01/12 10:22:26;;;;;;;129.77;67.63;;;51.70;2227.20;;;;;;4830891;29;20031;-76
2021/01/12 10:24:52;;;;;;;133.05;69.70;;;51.70;2201.60;;;;;;4839888;29;20041;-75
2021/01/12 10:27:22;;;;;;;145.55;74.45;;;51.70;2227.20;;;;;;4840722;29;20120;-75
2021/01/12 10:29:49;;;;;;;131.50;68.55;;;51.70;2227.20;;;;;;4840603;29;20038;-76
2021/01/12 10:32:15;;;;;;;151.85;77.13;;;51.70;2201.60;;;;;;4841056;29;20461;-75
2021/01/12 10:34:41;;;;;;;126.15;66.57;;;51.70;2227.20;;;;;;4841713;29;20034;-75
2021/01/12 10:37:06;;;;;;;130.45;69.60;;;51.60;2201.60;;;;;;4841236;29;20037;-75
2021/01/12 10:39:32;;;;;;;122.70;67.38;;;51.50;2227.20;;;;;;4823654;29;20095;-76
2021/01/12 10:41:58;;;;;;;123.00;63.30;;;51.70;2201.60;;;;;;4841571;29;20471;-76
2021/01/12 10:44:39;;;;;;;124.28;67.25;;;51.60;2201.60;;;;;;4841206;29;20050;-76
2021/01/12 10:47:05;;;;;;;127.78;72.38;;;51.60;2227.20;;;;;;4832097;29;20128;-76
2021/01/12 10:49:31;;;;;;;138.80;72.55;;;51.70;2227.20;;;;;;4825658;29;20038;-76
2021/01/12 10:51:59;;;;;;;117.38;65.22;;;51.60;2227.20;;;;;;4839502;29;20037;-76
2021/01/12 10:54:25;;;;;;;123.40;70.00;;;51.70;2201.60;;;;;;4822912;29;20049;-75
2021/01/12 10:56:51;;;;;;;132.82;66.40;;;51.50;2227.20;;;;;;4822760;29;20030;-73
2021/01/12 10:59:17;;;;;;;129.13;67.38;;;51.60;2201.60;;;;;;4821880;29;20052;-74
2021/01/12 11:01:43;;;;;;;120.90;68.68;;;51.70;2227.20;;;;;;4822661;29;20535;-74
2021/01/12 11:04:08;;;;;;;129.07;73.68;;;51.70;2227.20;;;;;;4823020;29;20858;-75
2021/01/12 11:06:37;;;;;;;126.25;65.55;;;51.80;2227.20;;;;;;4827891;29;20030;-75
2021/01/12 11:09:04;;;;;;;129.00;69.65;;;51.80;2176.00;;;;;;4832611;29;20062;-74
2021/01/12 11:11:34;;;;;;;143.55;75.13;;;51.80;2201.60;;;;;;4841179;29;20081;-74
2021/01/12 11:14:01;;;;;;;138.40;68.40;;;51.70;2227.20;;;;;;4836993;29;20038;-75
2021/01/12 11:16:38;;;;;;;153.13;75.38;;;51.70;2201.60;;;;;;4841169;29;20034;-75
2021/01/12 11:19:05;;;;;;;164.25;83.95;;;51.80;2227.20;;;;;;4840538;29;20034;-75
2021/01/12 11:21:31;;;;;;;140.55;75.43;;;51.70;2227.20;;;;;;4840534;29;20120;-75
2021/01/12 11:24:01;;;;;;;157.05;82.32;;;51.80;2227.20;;;;;;4840806;29;20038;-76
2021/01/12 11:26:33;;;;;;;170.45;89.88;;;51.80;2201.60;;;;;;4840910;29;20371;-76
2021/01/12 11:28:59;;;;;;;153.63;78.07;;;51.70;2227.20;;;;;;4840029;29;20049;-75
2021/01/12 11:31:26;;;;;;;157.80;80.88;;;51.60;2227.20;;;;;;4839614;29;20674;-76
2021/01/12 11:33:52;;;;;;;157.23;79.15;;;51.60;2227.20;;;;;;4837509;29;20048;-75
2021/01/12 11:36:18;;;;;;;151.38;80.32;;;51.60;2227.20;;;;;;4839507;29;20034;-75
2021/01/12 11:38:44;;;;;;;136.25;77.40;;;51.60;2227.20;;;;;;4840126;29;20501;-75
2021/01/12 11:41:11;;;;;;;118.35;65.40;;;51.60;2227.20;;;;;;4840770;29;20033;-75
2021/01/12 11:43:38;;;;;;;103.47;56.20;;;51.60;2201.60;;;;;;4841447;29;20022;-76
2021/01/12 11:46:04;;;;;;;113.20;65.03;;;51.60;2201.60;;;;;;4841767;29;20057;-76
2021/01/12 11:48:30;;;;;;;97.10;53.17;;;51.60;2227.20;;;;;;4842574;29;20098;-75
2021/01/12 11:50:56;;;;;;;106.28;59.38;;;51.70;2201.60;;;;;;4842135;29;20074;-75
2021/01/12 11:53:22;;;;;;;108.65;57.90;;;51.70;2201.60;;;;;;4840453;29;20069;-75
2021/01/12 11:55:47;;;;;;;91.13;52.85;;;51.70;2201.60;;;;;;4840722;29;20034;-75
2021/01/12 11:58:13;;;;;;;98.20;56.17;;;51.70;2201.60;;;;;;4831427;29;20487;-75
2021/01/12 12:00:39;;;;;;;94.20;55.88;;;51.70;2201.60;;;;;;4838545;29;20049;-75
2021/01/12 12:03:05;;;;;;;103.65;56.33;;;51.70;2201.60;;;;;;4838740;29;20069;-75